createdAt,value
2022-12-23T00:01:44.773Z,41.88
2022-12-23T00:04:11.374Z,41.65
2022-12-23T00:06:37.851Z,40.25
2022-12-23T00:09:04.240Z,42.88
2022-12-23T00:11:30.666Z,39.58
2022-12-23T00:14:21.132Z,41.28
2022-12-23T00:16:49.096Z,39.85
2022-12-23T00:19:15.549Z,42.47
2022-12-23T00:21:42.198Z,42.30
2022-12-23T00:24:08.599Z,42.45
2022-12-23T00:26:35.051Z,40.70
2022-12-23T00:29:01.461Z,43.50
2022-12-23T00:31:27.880Z,42.00
2022-12-23T00:33:54.519Z,40.78
2022-12-23T00:36:24.980Z,41.63
2022-12-23T00:39:10.414Z,43.08
2022-12-23T00:41:55.754Z,42.22
2022-12-23T00:44:22.350Z,41.35
2022-12-23T00:46:49.726Z,41.47
2022-12-23T00:49:36.300Z,42.20
2022-12-23T00:52:05.497Z,43.90
2022-12-23T00:54:31.991Z,43.10
2022-12-23T00:56:59.457Z,42.22
2022-12-23T00:59:26.672Z,44.67
2022-12-23T01:02:12.066Z,45.28
2022-12-23T01:04:57.174Z,41.88
2022-12-23T01:07:24.571Z,43.20
2022-12-23T01:09:51.032Z,41.85
2022-12-23T01:12:17.955Z,39.75
2022-12-23T01:14:44.817Z,41.72
2022-12-23T01:17:11.636Z,40.88
2022-12-23T01:19:38.232Z,41.75
2022-12-23T01:22:04.645Z,41.08
2022-12-23T01:24:32.160Z,41.67
2022-12-23T01:26:59.012Z,43.08
2022-12-23T01:29:26.099Z,41.33
2022-12-23T01:31:52.547Z,41.58
2022-12-23T01:34:19.136Z,41.92
2022-12-23T01:36:45.584Z,42.00
2022-12-23T01:39:12.256Z,40.28
2022-12-23T01:41:57.605Z,43.20
2022-12-23T01:44:45.491Z,44.28
2022-12-23T01:47:34.682Z,42.67
2022-12-23T01:50:12.865Z,44.22
2022-12-23T01:52:45.726Z,42.75
2022-12-23T01:55:14.420Z,44.10
2022-12-23T01:57:42.820Z,43.25
2022-12-23T02:00:29.654Z,44.03
2022-12-23T02:03:14.543Z,44.38
2022-12-23T02:05:44.589Z,43.67
2022-12-23T02:08:31.053Z,42.78
2022-12-23T02:11:12.197Z,43.55
2022-12-23T02:14:32.629Z,43.47
2022-12-23T02:17:10.051Z,40.05
2022-12-23T02:20:08.643Z,42.40
2022-12-23T02:23:13.737Z,39.75
2022-12-23T02:25:49.319Z,43.65
2022-12-23T02:28:30.173Z,43.58
2022-12-23T02:31:13.904Z,43.95
2022-12-23T02:33:47.651Z,43.83
2022-12-23T02:36:31.999Z,48.33
2022-12-23T02:39:19.292Z,45.78
2022-12-23T02:41:57.531Z,44.60
2022-12-23T02:44:36.200Z,45.70
2022-12-23T02:47:10.195Z,44.85
2022-12-23T02:49:41.322Z,47.42
2022-12-23T02:52:13.174Z,45.20
2022-12-23T02:54:52.483Z,44.70
2022-12-23T02:57:25.520Z,50.70
2022-12-23T02:59:52.936Z,50.42
2022-12-23T03:02:19.764Z,50.85
2022-12-23T03:04:46.365Z,49.20
2022-12-23T03:07:26.581Z,50.72
2022-12-23T03:13:02.287Z,48.00
2022-12-23T03:16:02.515Z,46.97
2022-12-23T03:21:11.401Z,49.20
2022-12-23T03:23:43.537Z,48.13
2022-12-23T03:26:18.791Z,48.63
2022-12-23T03:28:49.349Z,47.80
2022-12-23T03:31:20.373Z,48.42
2022-12-23T03:33:51.893Z,49.40
2022-12-23T03:36:25.044Z,48.72
2022-12-23T03:38:55.514Z,49.10
2022-12-23T03:41:28.740Z,49.33
2022-12-23T03:44:02.805Z,51.17
2022-12-23T03:46:34.788Z,55.22
2022-12-23T03:49:07.070Z,52.08
2022-12-23T03:51:44.696Z,50.90
2022-12-23T03:54:18.920Z,52.17
2022-12-23T03:56:56.593Z,54.33
2022-12-23T03:59:30.252Z,52.13
2022-12-23T04:01:56.722Z,50.13
2022-12-23T04:04:29.767Z,49.95
2022-12-23T04:07:15.053Z,53.55
2022-12-23T04:09:43.125Z,53.88
2022-12-23T04:12:09.890Z,54.30
2022-12-23T04:14:37.845Z,50.97
2022-12-23T04:17:04.257Z,52.13
2022-12-23T04:19:30.647Z,50.40
2022-12-23T04:22:00.194Z,55.30
2022-12-23T04:24:26.646Z,55.85
2022-12-23T04:26:53.078Z,58.75
2022-12-23T04:29:19.628Z,56.88
2022-12-23T04:31:46.066Z,54.92
2022-12-23T04:34:12.701Z,52.05
2022-12-23T04:36:39.104Z,55.80
2022-12-23T04:39:05.535Z,56.50
2022-12-23T04:41:31.971Z,55.45
2022-12-23T04:43:58.426Z,55.47
2022-12-23T04:46:24.855Z,57.08
2022-12-23T04:48:51.322Z,56.78
2022-12-23T04:51:17.802Z,57.00
2022-12-23T04:53:44.247Z,54.47
2022-12-23T04:56:10.652Z,52.55
2022-12-23T04:58:37.037Z,56.35
2022-12-23T05:01:09.354Z,53.63
2022-12-23T05:03:36.736Z,54.75
2022-12-23T05:06:04.617Z,56.50
2022-12-23T05:08:31.141Z,57.08
2022-12-23T05:10:57.935Z,59.33
2022-12-23T05:13:24.755Z,54.15
2022-12-23T05:15:52.822Z,54.13
2022-12-23T05:18:20.190Z,53.20
2022-12-23T05:20:46.812Z,54.38
2022-12-23T05:23:13.518Z,57.08
2022-12-23T05:25:40.225Z,53.22
2022-12-23T05:28:07.936Z,57.42
2022-12-23T05:30:34.388Z,55.92
2022-12-23T05:33:00.930Z,54.97
2022-12-23T05:35:27.934Z,54.30
2022-12-23T05:37:54.365Z,54.97
2022-12-23T05:40:24.717Z,55.13
2022-12-23T05:42:51.743Z,53.58
2022-12-23T05:45:18.261Z,55.33
2022-12-23T05:47:44.698Z,56.15
2022-12-23T05:50:11.629Z,55.65
2022-12-23T05:52:38.065Z,55.13
2022-12-23T05:55:05.103Z,55.80
2022-12-23T05:57:32.211Z,56.25
2022-12-23T05:59:58.864Z,52.40
2022-12-23T06:02:25.393Z,54.53
2022-12-23T06:04:51.906Z,53.42
2022-12-23T06:07:18.277Z,52.75
2022-12-23T06:09:44.699Z,55.92
2022-12-23T06:12:11.132Z,51.35
2022-12-23T06:14:37.652Z,52.88
2022-12-23T06:17:04.118Z,52.53
2022-12-23T06:19:30.856Z,55.85
2022-12-23T06:21:57.266Z,52.67
2022-12-23T06:24:23.656Z,54.13
2022-12-23T06:26:56.566Z,52.17
2022-12-23T06:29:23.610Z,49.50
2022-12-23T06:31:50.081Z,52.42
2022-12-23T06:34:16.572Z,52.58
2022-12-23T06:36:42.933Z,49.00
2022-12-23T06:39:11.193Z,51.70
2022-12-23T06:41:37.677Z,52.50
2022-12-23T06:44:04.324Z,47.97
2022-12-23T06:46:30.782Z,46.22
2022-12-23T06:48:57.242Z,47.97
2022-12-23T06:51:23.741Z,48.13
2022-12-23T06:53:50.234Z,49.13
2022-12-23T06:56:16.664Z,47.65
2022-12-23T06:58:43.460Z,47.42
2022-12-23T07:01:11.148Z,47.97
2022-12-23T07:03:38.036Z,46.30
2022-12-23T07:06:04.846Z,48.08
2022-12-23T07:08:31.324Z,48.38
2022-12-23T07:11:03.384Z,46.22
2022-12-23T07:13:30.914Z,44.50
2022-12-23T07:15:57.707Z,47.97
2022-12-23T07:18:25.178Z,49.97
2022-12-23T07:20:54.658Z,48.75
2022-12-23T07:23:21.305Z,48.92
2022-12-23T07:25:47.962Z,47.45
2022-12-23T07:28:14.523Z,46.00
2022-12-23T07:30:41.061Z,48.28
2022-12-23T07:33:08.028Z,48.25
2022-12-23T07:35:34.725Z,47.53
2022-12-23T07:38:01.287Z,49.78
2022-12-23T07:40:28.078Z,48.97
2022-12-23T07:42:58.472Z,51.13
2022-12-23T07:45:27.533Z,46.38
2022-12-23T07:47:57.028Z,48.95
2022-12-23T07:50:24.189Z,48.80
2022-12-23T07:52:54.602Z,47.22
2022-12-23T07:55:21.586Z,47.08
2022-12-23T07:57:49.861Z,46.17
2022-12-23T08:00:17.167Z,51.20
2022-12-23T08:02:44.232Z,51.03
2022-12-23T08:05:11.838Z,51.08
2022-12-23T08:07:38.786Z,51.58
2022-12-23T08:10:06.605Z,49.83
2022-12-23T08:12:33.704Z,49.55
2022-12-23T08:15:00.517Z,53.15
2022-12-23T08:17:29.527Z,50.70
2022-12-23T08:19:57.001Z,51.53
2022-12-23T08:22:24.068Z,51.40
2022-12-23T08:24:50.932Z,51.55
2022-12-23T08:27:17.661Z,50.42
2022-12-23T08:29:44.265Z,53.42
2022-12-23T08:32:12.091Z,51.20
2022-12-23T08:34:38.863Z,52.75
2022-12-23T08:37:05.519Z,51.83
2022-12-23T08:39:32.506Z,52.42
2022-12-23T08:41:59.017Z,54.88
2022-12-23T08:44:27.938Z,52.35
2022-12-23T08:46:58.178Z,51.33
2022-12-23T08:51:51.430Z,46.53
2022-12-23T08:54:20.364Z,51.00
2022-12-23T08:56:49.586Z,49.72
2022-12-23T08:59:20.360Z,50.33
2022-12-23T09:01:47.527Z,51.05
2022-12-23T09:04:14.316Z,50.47
2022-12-23T09:06:42.698Z,50.53
2022-12-23T09:09:12.575Z,52.33
2022-12-23T09:11:39.314Z,51.95
2022-12-23T09:14:08.508Z,50.28
2022-12-23T09:16:35.510Z,50.97
2022-12-23T09:19:02.139Z,49.08
2022-12-23T09:21:28.933Z,50.65
2022-12-23T09:23:55.422Z,47.92
2022-12-23T09:26:24.965Z,49.33
2022-12-23T09:28:51.814Z,50.90
2022-12-23T09:31:19.330Z,51.03
2022-12-23T09:33:50.812Z,49.38
2022-12-23T09:36:17.540Z,47.58
2022-12-23T09:38:44.851Z,48.55
2022-12-23T09:41:17.191Z,46.80
2022-12-23T09:44:16.015Z,49.20
2022-12-23T09:46:53.971Z,47.40
2022-12-23T09:49:22.446Z,45.08
2022-12-23T09:51:50.129Z,49.33
2022-12-23T09:54:23.381Z,44.25
2022-12-23T09:56:54.891Z,47.00
2022-12-23T09:59:36.526Z,46.55
2022-12-23T10:02:17.607Z,42.90
2022-12-23T10:04:56.174Z,44.08
2022-12-23T10:07:35.066Z,41.78
2022-12-23T10:10:13.971Z,40.30
2022-12-23T10:12:47.316Z,44.38
2022-12-23T10:15:21.539Z,42.60
2022-12-23T10:17:52.931Z,41.55
2022-12-23T10:20:37.299Z,41.47
2022-12-23T10:23:08.765Z,39.67
2022-12-23T10:25:44.984Z,38.42
2022-12-23T10:28:11.712Z,37.53
2022-12-23T10:33:42.724Z,37.10
2022-12-23T10:36:47.662Z,37.22
2022-12-23T10:39:27.939Z,37.65
2022-12-23T10:42:17.869Z,36.20
2022-12-23T10:45:17.824Z,35.63
2022-12-23T10:48:23.079Z,37.05
2022-12-23T10:51:03.838Z,34.67
2022-12-23T10:53:30.387Z,36.28
2022-12-23T10:55:58.152Z,35.55
2022-12-23T10:58:26.351Z,35.38
2022-12-23T11:00:59.805Z,35.72
2022-12-23T11:03:31.266Z,36.78
2022-12-23T11:05:59.777Z,34.80
2022-12-23T11:08:30.130Z,36.72
2022-12-23T11:10:57.167Z,35.97
2022-12-23T11:13:32.382Z,35.55
2022-12-23T11:16:28.568Z,35.88
2022-12-23T11:19:13.703Z,34.83
2022-12-23T11:21:55.331Z,34.88
2022-12-23T11:24:22.784Z,33.83
2022-12-23T11:26:59.176Z,40.70
2022-12-23T11:29:31.900Z,38.83
2022-12-23T11:31:59.196Z,39.13
2022-12-23T11:34:29.089Z,38.42
2022-12-23T11:37:03.367Z,41.33
2022-12-23T11:39:36.747Z,40.80
2022-12-23T11:42:07.744Z,43.40
2022-12-23T11:44:38.006Z,42.40
2022-12-23T11:49:50.398Z,46.75
2022-12-23T11:52:22.371Z,46.25
2022-12-23T11:54:55.008Z,43.95
2022-12-23T11:57:30.627Z,43.88
2022-12-23T12:00:01.526Z,39.72
2022-12-23T12:02:35.419Z,42.33
2022-12-23T12:05:08.766Z,42.38
2022-12-23T12:07:35.823Z,41.75
2022-12-23T12:10:03.385Z,45.40
2022-12-23T12:12:30.466Z,40.75
2022-12-23T12:15:00.010Z,46.20
2022-12-23T12:17:39.411Z,43.72
2022-12-23T12:20:21.120Z,39.97
2022-12-23T12:23:02.191Z,41.80
2022-12-23T12:25:44.212Z,38.88
2022-12-23T12:28:20.208Z,39.22
2022-12-23T12:31:02.036Z,38.90
2022-12-23T12:33:41.380Z,38.90
2022-12-23T12:36:18.865Z,36.53
2022-12-23T12:38:48.488Z,36.17
2022-12-23T12:41:46.593Z,37.08
2022-12-23T12:44:16.009Z,37.83
2022-12-23T12:46:47.045Z,39.08
2022-12-23T12:49:25.562Z,38.17
2022-12-23T12:52:08.776Z,39.10
2022-12-23T12:54:38.209Z,38.60
2022-12-23T12:57:04.698Z,40.30
2022-12-23T12:59:38.678Z,39.10
2022-12-23T13:02:23.597Z,40.22
2022-12-23T13:05:21.177Z,40.80
2022-12-23T13:08:18.607Z,41.55
2022-12-23T13:11:01.176Z,40.83
2022-12-23T13:13:54.067Z,40.47
2022-12-23T13:16:27.553Z,40.92
2022-12-23T13:19:31.654Z,40.20
2022-12-23T13:22:08.485Z,42.30
2022-12-23T13:25:03.271Z,40.17
2022-12-23T13:27:52.777Z,40.45
2022-12-23T13:30:23.826Z,40.17
2022-12-23T13:33:09.176Z,40.28
2022-12-23T13:35:50.831Z,39.35
2022-12-23T13:38:54.901Z,39.63
2022-12-23T13:41:35.988Z,42.75
2022-12-23T13:44:07.878Z,42.80
2022-12-23T13:46:52.948Z,43.05
2022-12-23T13:49:31.305Z,42.25
2022-12-23T13:52:11.413Z,42.75
2022-12-23T13:54:46.677Z,40.08
2022-12-23T13:57:25.263Z,42.20
2022-12-23T14:00:23.230Z,45.08
2022-12-23T14:02:52.936Z,42.67
2022-12-23T14:05:32.494Z,44.33
2022-12-23T14:08:20.310Z,41.53
2022-12-23T14:11:30.328Z,40.88
2022-12-23T14:14:02.751Z,41.63
2022-12-23T14:17:06.733Z,38.90
2022-12-23T14:19:42.753Z,41.30
2022-12-23T14:22:24.774Z,40.97
2022-12-23T14:25:17.323Z,42.30
2022-12-23T14:27:49.847Z,40.92
2022-12-23T14:30:35.761Z,41.67
2022-12-23T14:33:33.094Z,40.10
2022-12-23T14:36:22.091Z,41.55
2022-12-23T14:39:13.094Z,39.60
2022-12-23T14:41:52.097Z,40.58
2022-12-23T14:44:40.956Z,41.72
2022-12-23T14:47:34.517Z,38.92
2022-12-23T14:50:36.987Z,39.75
2022-12-23T14:53:19.099Z,41.30
2022-12-23T14:55:46.887Z,41.10
2022-12-23T14:58:30.862Z,41.58
2022-12-23T15:01:03.124Z,39.72
2022-12-23T15:03:56.039Z,42.03
2022-12-23T15:06:36.800Z,39.92
2022-12-23T15:09:05.042Z,40.75
2022-12-23T15:11:34.263Z,39.83
2022-12-23T15:14:07.718Z,41.53
2022-12-23T15:16:37.300Z,41.13
2022-12-23T15:19:25.147Z,42.10
2022-12-23T15:22:15.317Z,42.58
2022-12-23T15:24:46.191Z,41.00
2022-12-23T15:27:27.292Z,40.28
2022-12-23T15:29:55.060Z,41.00
2022-12-23T15:32:23.833Z,38.63
2022-12-23T15:34:52.226Z,40.80
2022-12-23T15:37:26.523Z,41.90
2022-12-23T15:40:03.092Z,41.72
2022-12-23T15:42:35.338Z,41.45
2022-12-23T15:45:26.313Z,41.25
2022-12-23T15:47:52.704Z,39.35
2022-12-23T15:50:19.624Z,42.00
2022-12-23T15:52:50.056Z,42.85
2022-12-23T15:55:31.477Z,43.58
2022-12-23T15:57:59.319Z,42.15
2022-12-23T16:00:51.273Z,42.30
2022-12-23T16:03:29.773Z,41.42
2022-12-23T16:17:43.592Z,43.83
2022-12-23T16:20:15.818Z,42.55
2022-12-23T16:22:44.599Z,43.42
2022-12-23T16:25:24.684Z,47.47
2022-12-23T16:28:12.700Z,46.13
2022-12-23T16:30:44.893Z,45.13
2022-12-23T16:33:36.969Z,45.00
2022-12-23T16:36:24.995Z,44.15
2022-12-23T16:38:58.857Z,46.42
2022-12-23T16:41:25.489Z,47.00
2022-12-23T16:43:53.061Z,47.33
2022-12-23T16:46:22.396Z,48.22
2022-12-23T16:48:52.849Z,49.47
2022-12-23T16:51:23.347Z,47.88
2022-12-23T16:53:52.407Z,50.63
2022-12-23T16:56:21.048Z,50.85
2022-12-23T16:58:48.333Z,50.28
2022-12-23T17:01:23.234Z,49.97
2022-12-23T17:03:50.308Z,50.35
2022-12-23T17:06:17.941Z,51.65
2022-12-23T17:08:44.413Z,55.10
2022-12-23T17:11:19.468Z,54.60
2022-12-23T17:13:46.247Z,52.13
2022-12-23T17:16:20.065Z,51.53
2022-12-23T17:18:52.096Z,50.30
2022-12-23T17:21:22.126Z,53.55
2022-12-23T17:23:50.169Z,52.30
2022-12-23T17:26:16.803Z,52.30
2022-12-23T17:28:43.262Z,49.35
2022-12-23T17:31:14.755Z,53.92
2022-12-23T17:33:42.727Z,52.15
2022-12-23T17:36:13.158Z,54.85
2022-12-23T17:38:39.810Z,51.67
2022-12-23T17:41:06.364Z,55.13
2022-12-23T17:43:32.796Z,53.05
2022-12-23T17:45:59.280Z,53.80
2022-12-23T17:48:31.407Z,53.53
2022-12-23T17:50:58.496Z,53.50
2022-12-23T17:53:24.953Z,53.70
2022-12-23T17:55:51.437Z,51.67
2022-12-23T17:58:17.887Z,53.92
2022-12-23T18:00:44.416Z,51.70
2022-12-23T18:03:23.025Z,53.83
2022-12-23T18:05:51.121Z,51.38
2022-12-23T18:08:20.819Z,52.33
2022-12-23T18:10:47.334Z,53.17
2022-12-23T18:13:17.007Z,52.83
2022-12-23T18:15:44.695Z,55.35
2022-12-23T18:18:26.860Z,52.92
2022-12-23T18:20:57.117Z,52.05
2022-12-23T18:23:27.448Z,52.38
2022-12-23T18:25:54.884Z,52.30
2022-12-23T18:28:22.389Z,52.92
2022-12-23T18:30:49.902Z,52.90
2022-12-23T18:33:16.677Z,52.85
2022-12-23T18:36:01.285Z,51.75
2022-12-23T18:38:27.732Z,51.90
2022-12-23T18:40:56.509Z,52.90
2022-12-23T18:43:25.260Z,50.60
2022-12-23T18:45:53.847Z,50.72
2022-12-23T18:48:21.292Z,50.45
2022-12-23T18:50:47.953Z,52.05
2022-12-23T18:53:23.331Z,51.95
2022-12-23T18:55:51.256Z,49.35
2022-12-23T18:58:18.034Z,51.22
2022-12-23T19:00:44.919Z,51.50
2022-12-23T19:03:21.895Z,50.20
2022-12-23T19:05:49.027Z,50.95
2022-12-23T19:08:20.337Z,52.35
2022-12-23T19:10:52.091Z,49.63
2022-12-23T19:13:19.273Z,52.15
2022-12-23T19:15:46.466Z,50.50
2022-12-23T19:18:15.266Z,52.40
2022-12-23T19:20:43.098Z,50.35
2022-12-23T19:23:11.194Z,49.35
2022-12-23T19:25:41.914Z,52.05
2022-12-23T19:28:08.769Z,50.63
2022-12-23T19:30:35.420Z,50.42
2022-12-23T19:33:01.963Z,51.88
2022-12-23T19:35:28.431Z,55.60
2022-12-23T19:37:54.852Z,55.58
2022-12-23T19:40:21.616Z,55.05
2022-12-23T19:42:48.135Z,54.08
2022-12-23T19:45:14.653Z,54.60
2022-12-23T19:47:41.330Z,58.45
2022-12-23T19:50:08.448Z,57.30
2022-12-23T19:52:35.020Z,55.05
2022-12-23T19:55:01.492Z,56.30
2022-12-23T19:57:28.204Z,58.80
2022-12-23T19:59:54.843Z,56.35
2022-12-23T20:02:23.340Z,60.47
2022-12-23T20:04:50.050Z,61.53
2022-12-23T20:07:16.526Z,59.50
2022-12-23T20:09:42.951Z,61.33
2022-12-23T20:12:09.454Z,59.70
2022-12-23T20:14:36.011Z,57.20
2022-12-23T20:17:02.533Z,59.70
2022-12-23T20:19:29.273Z,60.45
2022-12-23T20:21:55.776Z,60.42
2022-12-23T20:24:22.208Z,59.88
2022-12-23T20:26:48.640Z,57.20
2022-12-23T20:29:15.201Z,58.65
2022-12-23T20:31:41.813Z,59.47
2022-12-23T20:34:13.668Z,59.05
2022-12-23T20:36:40.151Z,56.22
2022-12-23T20:39:06.700Z,56.92
2022-12-23T20:41:33.686Z,56.67
2022-12-23T20:44:33.418Z,57.22
2022-12-23T20:46:46.945Z,54.70
2022-12-23T20:49:13.470Z,56.60
2022-12-23T20:51:39.908Z,54.53
2022-12-23T20:54:06.359Z,51.63
2022-12-23T20:56:32.793Z,54.42
2022-12-23T20:59:00.141Z,51.83
2022-12-23T21:01:32.774Z,52.85
2022-12-23T21:04:01.708Z,51.25
2022-12-23T21:06:29.835Z,51.88
2022-12-23T21:08:58.813Z,48.28
2022-12-23T21:11:28.396Z,46.80
2022-12-23T21:13:55.344Z,46.45
2022-12-23T21:16:23.050Z,49.42
2022-12-23T21:18:52.638Z,45.13
2022-12-23T21:21:26.280Z,49.05
2022-12-23T21:23:55.501Z,46.35
2022-12-23T21:26:24.750Z,45.65
2022-12-23T21:28:53.035Z,48.10
2022-12-23T21:31:22.688Z,47.45
2022-12-23T21:33:50.679Z,46.08
2022-12-23T21:36:23.208Z,44.92
2022-12-23T21:38:50.498Z,47.38
2022-12-23T21:41:20.058Z,47.70
2022-12-23T21:43:47.346Z,48.72
2022-12-23T21:46:17.141Z,51.13
2022-12-23T21:48:44.256Z,49.28
2022-12-23T21:51:14.903Z,47.10
2022-12-23T21:53:42.698Z,47.45
2022-12-23T21:56:15.805Z,48.30
2022-12-23T21:58:42.758Z,48.58
2022-12-23T22:01:12.676Z,50.05
2022-12-23T22:03:39.334Z,49.60
2022-12-23T22:06:10.157Z,49.20
2022-12-23T22:08:37.582Z,51.05
2022-12-23T22:11:12.191Z,47.72
2022-12-23T22:13:38.908Z,46.50
2022-12-23T22:16:09.738Z,45.67
2022-12-23T22:18:37.667Z,44.35
2022-12-23T22:21:05.910Z,43.13
2022-12-23T22:23:32.493Z,42.22
2022-12-23T22:25:59.139Z,41.83
2022-12-23T22:28:25.698Z,41.35
2022-12-23T22:30:52.303Z,40.85
2022-12-23T22:33:18.802Z,38.60
2022-12-23T22:35:54.674Z,39.95
2022-12-23T22:38:21.202Z,39.13
2022-12-23T22:40:51.896Z,38.63
2022-12-23T22:43:19.458Z,37.90
2022-12-23T22:45:46.317Z,36.90
2022-12-23T22:48:12.944Z,38.05
2022-12-23T22:50:39.560Z,37.60
2022-12-23T22:53:06.027Z,35.85
2022-12-23T22:55:32.599Z,37.50
2022-12-23T22:57:59.011Z,36.85
2022-12-23T23:00:25.637Z,35.17
2022-12-23T23:02:52.067Z,35.95
2022-12-23T23:05:18.548Z,34.83
2022-12-23T23:07:45.106Z,34.17
2022-12-23T23:10:11.612Z,35.90
2022-12-23T23:12:38.045Z,34.60
2022-12-23T23:15:04.855Z,35.47
2022-12-23T23:17:31.337Z,36.83
2022-12-23T23:19:57.723Z,35.33
2022-12-23T23:22:25.322Z,35.28
2022-12-23T23:24:52.232Z,35.42
2022-12-23T23:27:19.108Z,37.03
2022-12-23T23:29:45.587Z,36.65
2022-12-23T23:32:12.315Z,36.22
2022-12-23T23:34:38.790Z,36.92
2022-12-23T23:37:05.326Z,36.95
2022-12-23T23:39:32.131Z,37.03
2022-12-23T23:41:58.920Z,36.60
2022-12-23T23:44:25.385Z,36.20
2022-12-23T23:46:51.848Z,35.38
2022-12-23T23:49:18.301Z,35.90
2022-12-23T23:51:44.769Z,35.53
2022-12-23T23:54:11.339Z,35.55
2022-12-23T23:56:39.408Z,36.78
2022-12-23T23:59:07.287Z,36.03
